Aérodrome :
LOGIN :

S'inscrire | Disclaimer

   EN    FR    IT 

 










Légende :    VFR   VFR Marginal   IFR   IFR Intensif   IFR Très Intensif
Visi : 
Plafond : 
>= 8 km
>= 3000ft
5 à 8 km
1000 à 3000 ft
1500m à 5 km
500 à 1000 ft
800 à 1500m
200 à 500 ft
< 800m
< 200 ft
Symboles :   Orages  Brouillard  Fortes neiges  Fortes précipitations  Vent > 20 kt
SIGMETs :   Divers  Orages  Givrage  Turbulence  Onde Orograph.  Cendres Volcan.







- Altitude de l'aérodrome : 0 ft


ETEB - Ansbach Army Heliport

DERNIER METAR :
  • 220604Z AUTO 25015G22KT 9999 OVC009 09/07 A2987 RMK AO2

METARs EXPIRÉS :
  • 220523Z AUTO 25019G27KT 9999 OVC010 09/07 A2987 RMK AO2 DZB00E03
  • 220503Z AUTO 25019G23KT 9999 OVC009 09/07 A2988 RMK AO2 DZB00E03 $
  • 220413Z AUTO 24017G23KT 9999 OVC008 08/07 A2990 RMK AO2 RAE11DZB11E13
  • 220358Z AUTO 24017G23KT 9999 -RA OVC008 09/07 A2990 RMK AO2 RAE25DZB25E29RAB29E30DZB32E45RAB45 SLP143 P0001 T00850071 $
  • 220332Z AUTO 24016G19KT 9999 -DZ OVC008 08/07 A2990 RMK AO2 RAE25DZB25E29RAB29E30DZB32 $
  • 220330Z AUTO 24013G19KT 9999 OVC008 08/07 A2990 RMK AO2 RAE25DZB25E29RAB29E30
  • 220322Z AUTO 24013G21KT 9999 -RA OVC008 08/07 A2990 RMK AO2
  • 220259Z AUTO 24015KT 9999 -RA OVC007 08/07 A2991 RMK AO2 $

TAF TAF ETEB
Valide du 22 à 05h jusqu'au 23 à 11h UTC


220503Z 2205/2311 25015G25KT 9000 -RA OVC009 620509 621404 510004 QNH2984INS
TEMPO 2206/2209 25025G35KT OVC008 520004
BECMG 2208/2209 25025G35KT 9000 -DZ OVC010 620509 621404 520004 QNH2983INS
BECMG 2217/2218 25025G35KT 8000 -DZ OVC008 610609 611501 520004 QNH2975INS
BECMG 2304/2305 25012G18KT 9999 NSW SCT010 BKN020 OVC045 620709 621602 QNH2972INS TX09/2213Z TN05/2304Z
Pas de NOTAMs connus pour ce terrain.



MET'MAP, la Météo Aéronautique d'un coup d'oeil ! - Copyright ORBIFLY Décembre 2007 - Disclaimer

ORBIFLY MET'MAP TEAM :

Programmation & Développement : Alexandra Zaïnal
Conception & Développement : Baudouin d'Aumeries
Co-Programmation & Développement : Marc-Olivier Méhu
Soutien technique & logistique : Manuel Goepfert

Contact : metmap@orbifly.com




SOURCES & CREDITS :

   NOAA